• Join FlightAware (Why Join?)
  • Login
  • US Flag 
05:01PM EDT


 

Airport Tracker/Info


-or-


 

Live Flight TrackerFlight Track Log ✈ N531SR ✈ 25.07.2013 ✈ KFIT - KACK

Flight Track Log - Related Links

Times and Time Zones

All times are in EDT time to prevent confusion due to time zone crossing. See the N531SR flight status page for this flight to view local times or setup timezone preferences in your user account.

Time Position Orientation Groundspeed Altitude Reporting Facility
EDT Latitude Longitude Course Direction KTS MPH feet Rate Location/Type
01:27PM 42.4667 -71.7333 154° Southeast 159 183 3,000  Level KA90
01:28PM 42.4167 -71.7000 154° Southeast 158 182 3,000  Level KA90
01:29PM 42.3833 -71.6667 144° Southeast 154 177 3,000 360 Level KA90
01:30PM 42.3667 -71.6167 114° Southeast 140 161 3,800 660 Climbing KA90
01:31PM 42.3333 -71.5833 144° Southeast 131 151 4,500 600 Climbing KA90
01:32PM 42.3167 -71.5333 114° Southeast 135 155 5,000 300 Climbing KA90
01:33PM 42.3000 -71.4833 114° Southeast 151 174 5,100  Climbing KA90
01:34PM 42.3000 -71.4333 90° East 157 181 5,000  Descending KA90
01:35PM 42.3000 -71.3667 90° East 157 181 5,100  Climbing KA90
01:36PM 42.3000 -71.3167 90° East 152 175 5,000 -60 Descending KA90
01:37PM 42.3167 -71.2667 66° East 152 175 5,000  Level KA90
01:38PM 42.3333 -71.2000 71° East 151 174 5,100  Climbing KA90
01:39PM 42.3500 -71.1500 66° East 151 174 5,100 -60 Level KA90
01:40PM 42.3500 -71.0833 90° East 150 173 5,000  Descending KA90
01:41PM 42.3500 -71.0500 90° East 150 173 5,100  Climbing KA90
01:42PM 42.3333 -71.0000 114° Southeast 151 174 5,100  Level KA90
01:43PM 42.3000 -70.9500 132° Southeast 151 174 5,100  Level KA90
01:44PM 42.2833 -70.8833 109° East 153 176 5,100  Level KA90
01:45PM 42.2667 -70.8333 114° Southeast 151 174 5,100  Level KA90
01:46PM 42.2500 -70.7833 114° Southeast 152 175 5,100 -60 Level KA90
01:47PM 42.2333 -70.7333 114° Southeast 151 174 5,000  Descending KA90
01:48PM 42.2167 -70.6833 114° Southeast 150 173 5,100 60 Climbing KA90
01:50PM 42.1961 -70.6214 114° Southeast  Level FlightAware Approximate
01:57PM 42.0878 -70.2818 111° Southeast  Level FlightAware Approximate
01:58PM 42.0737 -70.2325 111° Southeast  Level FlightAware Approximate
01:59PM 42.0597 -70.1833 111° Southeast  Level FlightAware Approximate
02:00PM 42.0456 -70.1341 111° Southeast  Level FlightAware Approximate
02:01PM 42.0315 -70.0849 111° Southeast  Level FlightAware Approximate
02:02PM 42.0173 -70.0357 111° Southeast  Level FlightAware Approximate
02:03PM 41.9794 -70.0347 182° South  Level FlightAware Approximate
02:04PM 41.9403 -70.0361 182° South  Level FlightAware Approximate
02:05PM 41.9011 -70.0375 182° South  Level FlightAware Approximate
02:06PM 41.8620 -70.0389 182° South  Level FlightAware Approximate
02:07PM 41.8228 -70.0403 182° South  Level FlightAware Approximate
02:08PM 41.7837 -70.0417 182° South  Level FlightAware Approximate
02:09PM 41.7445 -70.0431 182° South  Level FlightAware Approximate
02:10PM 41.7054 -70.0445 182° South  Level FlightAware Approximate
02:11PM 41.6662 -70.0459 182° South  Level FlightAware Approximate
02:12PM 41.6271 -70.0473 182° South  Level FlightAware Approximate
02:13PM 41.5879 -70.0487 182° South  Level FlightAware Approximate
02:14PM 41.5487 -70.0500 180° South  Level FlightAware Approximate
02:15PM 41.5095 -70.0500 180° South  Level FlightAware Approximate
02:16PM 41.4704 -70.0500 180° South  Level FlightAware Approximate
02:17PM 41.4312 -70.0500 180° South  Level FlightAware Approximate
02:18PM 41.3921 -70.0500 180° South  Level FlightAware Approximate
02:19PM 41.3529 -70.0500 180° South  Level FlightAware Approximate
02:20PM 41.3137 -70.0500 180° South  Level FlightAware Approximate
02:21PM 41.2746 -70.0500 180° South  Level FlightAware Approximate
02:22PM 41.2500 -70.0500 180° South  Level FlightAware Approximate
02:23PM 41.2531 -70.0603 180° South  Level Estimated
02:24PM 41.2531 -70.0603 180° South  Level Estimated
02:25PM 41.2531 -70.0603 180° South  Level Estimated
02:26PM 41.2531 -70.0603 180° South  Level Estimated
02:27PM 41.2531 -70.0603 180° South  Level Estimated
02:28PM 41.2531 -70.0603 180° South  Level Estimated
02:29PM 41.2531 -70.0603 180° South  Level Estimated
02:30PM 41.2531 -70.0603 180° South  Level Estimated
02:31PM 41.2531 -70.0603 180° South  Level Estimated
02:32PM 41.2531 -70.0603 180° South  Level Estimated
02:33PM 41.2531 -70.0603 180° South  Level Estimated